sensor_id;sensor_type;location;lat;lon;timestamp;temperature;humidity
5901;DHT22;2976;49.764;9.796;2023-03-01T00:00:13;-2.10;95.10
5901;DHT22;2976;49.764;9.796;2023-03-01T00:02:38;-2.20;96.10
5901;DHT22;2976;49.764;9.796;2023-03-01T00:05:04;-2.20;99.90
5901;DHT22;2976;49.764;9.796;2023-03-01T00:07:30;-2.20;99.00
5901;DHT22;2976;49.764;9.796;2023-03-01T00:09:55;-2.10;94.40
5901;DHT22;2976;49.764;9.796;2023-03-01T00:12:21;-2.20;94.10
5901;DHT22;2976;49.764;9.796;2023-03-01T00:14:46;-2.20;96.80
5901;DHT22;2976;49.764;9.796;2023-03-01T00:17:12;-2.20;96.50
5901;DHT22;2976;49.764;9.796;2023-03-01T00:19:37;-2.20;98.90
5901;DHT22;2976;49.764;9.796;2023-03-01T00:22:03;-2.20;94.40
5901;DHT22;2976;49.764;9.796;2023-03-01T00:24:28;-2.20;98.60
5901;DHT22;2976;49.764;9.796;2023-03-01T00:26:54;-2.30;94.80
5901;DHT22;2976;49.764;9.796;2023-03-01T00:29:24;-2.40;99.90
5901;DHT22;2976;49.764;9.796;2023-03-01T00:31:49;-2.40;99.90
5901;DHT22;2976;49.764;9.796;2023-03-01T00:34:15;-2.40;99.90
5901;DHT22;2976;49.764;9.796;2023-03-01T00:36:41;-2.30;99.90
5901;DHT22;2976;49.764;9.796;2023-03-01T00:39:11;-2.30;99.90
5901;DHT22;2976;49.764;9.796;2023-03-01T00:41:37;-2.40;99.90
5901;DHT22;2976;49.764;9.796;2023-03-01T00:44:03;-2.30;99.90
5901;DHT22;2976;49.764;9.796;2023-03-01T00:46:28;-2.40;99.90
5901;DHT22;2976;49.764;9.796;2023-03-01T00:48:56;-2.30;99.90
5901;DHT22;2976;49.764;9.796;2023-03-01T00:51:25;-2.30;99.70
5901;DHT22;2976;49.764;9.796;2023-03-01T00:53:55;-2.40;97.80
5901;DHT22;2976;49.764;9.796;2023-03-01T00:56:22;-2.40;99.90
5901;DHT22;2976;49.764;9.796;2023-03-01T00:58:48;-2.40;99.90
5901;DHT22;2976;49.764;9.796;2023-03-01T01:01:17;-2.40;99.90
5901;DHT22;2976;49.764;9.796;2023-03-01T01:04:02;-2.60;99.90
5901;DHT22;2976;49.764;9.796;2023-03-01T01:06:30;-2.80;99.90
5901;DHT22;2976;49.764;9.796;2023-03-01T01:08:56;-2.90;99.90
5901;DHT22;2976;49.764;9.796;2023-03-01T01:11:24;-3.00;99.90
5901;DHT22;2976;49.764;9.796;2023-03-01T01:13:50;-3.10;99.90
5901;DHT22;2976;49.764;9.796;2023-03-01T01:16:18;-3.00;99.90
5901;DHT22;2976;49.764;9.796;2023-03-01T01:18:44;-3.10;99.90
5901;DHT22;2976;49.764;9.796;2023-03-01T01:21:12;-3.10;99.90
5901;DHT22;2976;49.764;9.796;2023-03-01T01:23:40;-3.10;99.90
5901;DHT22;2976;49.764;9.796;2023-03-01T01:26:18;-3.20;99.90
5901;DHT22;2976;49.764;9.796;2023-03-01T01:28:44;-3.30;99.90
5901;DHT22;2976;49.764;9.796;2023-03-01T01:31:10;-3.30;99.90
5901;DHT22;2976;49.764;9.796;2023-03-01T01:33:36;-3.30;99.90
5901;DHT22;2976;49.764;9.796;2023-03-01T01:36:03;-3.20;99.90
5901;DHT22;2976;49.764;9.796;2023-03-01T01:38:28;-3.10;99.90
5901;DHT22;2976;49.764;9.796;2023-03-01T01:40:54;-3.10;99.90
5901;DHT22;2976;49.764;9.796;2023-03-01T01:43:29;-3.00;99.90
5901;DHT22;2976;49.764;9.796;2023-03-01T01:46:04;-3.10;99.90
5901;DHT22;2976;49.764;9.796;2023-03-01T01:48:43;-3.20;99.90
5901;DHT22;2976;49.764;9.796;2023-03-01T01:51:13;-3.00;99.90
5901;DHT22;2976;49.764;9.796;2023-03-01T01:53:45;-3.00;99.90
5901;DHT22;2976;49.764;9.796;2023-03-01T01:56:13;-3.10;99.90
5901;DHT22;2976;49.764;9.796;2023-03-01T01:58:41;-3.10;99.90
5901;DHT22;2976;49.764;9.796;2023-03-01T02:01:07;-3.20;99.90
5901;DHT22;2976;49.764;9.796;2023-03-01T02:03:35;-3.30;99.90
5901;DHT22;2976;49.764;9.796;2023-03-01T02:08:38;-3.50;99.90
5901;DHT22;2976;49.764;9.796;2023-03-01T02:11:05;-3.40;99.90
5901;DHT22;2976;49.764;9.796;2023-03-01T02:13:32;-3.40;99.90
5901;DHT22;2976;49.764;9.796;2023-03-01T02:15:58;-3.40;99.90
5901;DHT22;2976;49.764;9.796;2023-03-01T02:18:24;-3.40;99.90
5901;DHT22;2976;49.764;9.796;2023-03-01T02:21:00;-3.30;99.90
5901;DHT22;2976;49.764;9.796;2023-03-01T02:23:28;-3.10;99.90
5901;DHT22;2976;49.764;9.796;2023-03-01T02:26:02;-3.20;99.90
5901;DHT22;2976;49.764;9.796;2023-03-01T02:28:35;-3.20;99.90
5901;DHT22;2976;49.764;9.796;2023-03-01T02:31:01;-3.30;99.90
5901;DHT22;2976;49.764;9.796;2023-03-01T02:33:47;-3.40;99.90
5901;DHT22;2976;49.764;9.796;2023-03-01T02:36:24;-3.50;99.90
5901;DHT22;2976;49.764;9.796;2023-03-01T02:38:53;-3.40;99.90
5901;DHT22;2976;49.764;9.796;2023-03-01T02:41:20;-3.30;99.90
5901;DHT22;2976;49.764;9.796;2023-03-01T02:43:46;-3.40;99.90
5901;DHT22;2976;49.764;9.796;2023-03-01T02:46:18;-3.50;99.90
5901;DHT22;2976;49.764;9.796;2023-03-01T02:48:48;-3.60;99.90
5901;DHT22;2976;49.764;9.796;2023-03-01T02:52:21;-3.30;99.90
5901;DHT22;2976;49.764;9.796;2023-03-01T02:57:18;-3.00;99.90
5901;DHT22;2976;49.764;9.796;2023-03-01T02:59:43;-2.90;99.90
5901;DHT22;2976;49.764;9.796;2023-03-01T03:04:47;-2.90;99.90
5901;DHT22;2976;49.764;9.796;2023-03-01T03:07:12;-2.90;99.90
5901;DHT22;2976;49.764;9.796;2023-03-01T03:09:38;-2.90;99.90
5901;DHT22;2976;49.764;9.796;2023-03-01T03:12:04;-2.90;99.90
5901;DHT22;2976;49.764;9.796;2023-03-01T03:14:29;-2.90;99.90
5901;DHT22;2976;49.764;9.796;2023-03-01T03:16:55;-2.90;99.90
5901;DHT22;2976;49.764;9.796;2023-03-01T03:19:21;-3.00;99.90
5901;DHT22;2976;49.764;9.796;2023-03-01T03:21:46;-3.00;99.90
5901;DHT22;2976;49.764;9.796;2023-03-01T03:24:12;-3.00;99.90
5901;DHT22;2976;49.764;9.796;2023-03-01T03:26:37;-3.00;99.90
5901;DHT22;2976;49.764;9.796;2023-03-01T03:29:03;-3.00;99.90
5901;DHT22;2976;49.764;9.796;2023-03-01T03:31:29;-3.10;99.90
5901;DHT22;2976;49.764;9.796;2023-03-01T03:33:54;-3.20;99.90
5901;DHT22;2976;49.764;9.796;2023-03-01T03:36:23;-3.20;99.90
5901;DHT22;2976;49.764;9.796;2023-03-01T03:38:49;-3.10;99.90
5901;DHT22;2976;49.764;9.796;2023-03-01T03:41:15;-3.20;99.90
5901;DHT22;2976;49.764;9.796;2023-03-01T03:43:42;-3.20;99.90
5901;DHT22;2976;49.764;9.796;2023-03-01T03:46:10;-3.20;99.90
5901;DHT22;2976;49.764;9.796;2023-03-01T03:48:39;-3.30;99.90
5901;DHT22;2976;49.764;9.796;2023-03-01T03:51:05;-3.20;99.90
5901;DHT22;2976;49.764;9.796;2023-03-01T03:53:31;-3.20;99.90
5901;DHT22;2976;49.764;9.796;2023-03-01T03:55:57;-3.20;99.90
5901;DHT22;2976;49.764;9.796;2023-03-01T03:58:24;-3.00;99.90
5901;DHT22;2976;49.764;9.796;2023-03-01T04:00:54;-2.90;99.90
5901;DHT22;2976;49.764;9.796;2023-03-01T04:03:22;-2.80;99.90
5901;DHT22;2976;49.764;9.796;2023-03-01T04:05:49;-2.80;99.90
5901;DHT22;2976;49.764;9.796;2023-03-01T04:08:21;-2.60;99.90
5901;DHT22;2976;49.764;9.796;2023-03-01T04:10:49;-2.60;99.90
5901;DHT22;2976;49.764;9.796;2023-03-01T04:13:24;-2.50;99.90
5901;DHT22;2976;49.764;9.796;2023-03-01T04:15:54;-2.50;99.90
5901;DHT22;2976;49.764;9.796;2023-03-01T04:18:21;-2.60;99.90
5901;DHT22;2976;49.764;9.796;2023-03-01T04:20:47;-2.60;99.90
5901;DHT22;2976;49.764;9.796;2023-03-01T04:23:16;-2.60;99.90
5901;DHT22;2976;49.764;9.796;2023-03-01T04:28:15;-2.70;99.90
5901;DHT22;2976;49.764;9.796;2023-03-01T04:30:40;-2.70;99.90
5901;DHT22;2976;49.764;9.796;2023-03-01T04:33:08;-2.70;99.90
5901;DHT22;2976;49.764;9.796;2023-03-01T04:35:35;-2.70;99.90
5901;DHT22;2976;49.764;9.796;2023-03-01T04:38:01;-2.80;99.90
5901;DHT22;2976;49.764;9.796;2023-03-01T04:40:26;-2.80;99.90
5901;DHT22;2976;49.764;9.796;2023-03-01T04:42:52;-2.70;99.90
5901;DHT22;2976;49.764;9.796;2023-03-01T04:45:18;-2.70;99.90
5901;DHT22;2976;49.764;9.796;2023-03-01T04:47:45;-2.70;99.90
5901;DHT22;2976;49.764;9.796;2023-03-01T04:50:14;-2.70;99.90
5901;DHT22;2976;49.764;9.796;2023-03-01T04:52:40;-2.70;99.90
5901;DHT22;2976;49.764;9.796;2023-03-01T04:55:06;-2.70;99.90
5901;DHT22;2976;49.764;9.796;2023-03-01T04:57:32;-2.70;99.90
5901;DHT22;2976;49.764;9.796;2023-03-01T04:59:58;-2.60;99.90
5901;DHT22;2976;49.764;9.796;2023-03-01T05:02:24;-2.60;99.90
5901;DHT22;2976;49.764;9.796;2023-03-01T05:04:49;-2.70;99.90
5901;DHT22;2976;49.764;9.796;2023-03-01T05:07:15;-2.60;99.90
5901;DHT22;2976;49.764;9.796;2023-03-01T05:09:45;-2.60;99.90
5901;DHT22;2976;49.764;9.796;2023-03-01T05:12:12;-2.60;99.90
5901;DHT22;2976;49.764;9.796;2023-03-01T05:14:37;-2.60;99.90
5901;DHT22;2976;49.764;9.796;2023-03-01T05:17:03;-2.60;99.90
5901;DHT22;2976;49.764;9.796;2023-03-01T05:19:30;-2.60;99.90
5901;DHT22;2976;49.764;9.796;2023-03-01T05:21:56;-2.60;99.90
5901;DHT22;2976;49.764;9.796;2023-03-01T05:24:34;-2.60;99.90
5901;DHT22;2976;49.764;9.796;2023-03-01T05:27:01;-2.60;98.70
5901;DHT22;2976;49.764;9.796;2023-03-01T05:29:28;-2.60;99.50
5901;DHT22;2976;49.764;9.796;2023-03-01T05:31:57;-2.50;98.50
5901;DHT22;2976;49.764;9.796;2023-03-01T05:34:31;-2.60;97.60
5901;DHT22;2976;49.764;9.796;2023-03-01T05:36:58;-2.60;96.80
5901;DHT22;2976;49.764;9.796;2023-03-01T05:39:25;-2.50;95.20
5901;DHT22;2976;49.764;9.796;2023-03-01T05:41:57;-2.50;90.20
5901;DHT22;2976;49.764;9.796;2023-03-01T05:44:23;-2.50;79.40
5901;DHT22;2976;49.764;9.796;2023-03-01T05:46:49;-2.50;74.20
5901;DHT22;2976;49.764;9.796;2023-03-01T05:49:15;-2.50;74.80
5901;DHT22;2976;49.764;9.796;2023-03-01T05:51:42;-2.50;77.40
5901;DHT22;2976;49.764;9.796;2023-03-01T05:54:09;-2.60;70.60
5901;DHT22;2976;49.764;9.796;2023-03-01T05:56:35;-2.60;82.60
5901;DHT22;2976;49.764;9.796;2023-03-01T05:59:02;-2.60;77.30
5901;DHT22;2976;49.764;9.796;2023-03-01T06:01:28;-2.60;80.00
5901;DHT22;2976;49.764;9.796;2023-03-01T06:03:55;-2.60;76.50
5901;DHT22;2976;49.764;9.796;2023-03-01T06:06:21;-2.60;80.20
5901;DHT22;2976;49.764;9.796;2023-03-01T06:08:46;-2.70;84.40
5901;DHT22;2976;49.764;9.796;2023-03-01T06:11:12;-2.80;91.00
5901;DHT22;2976;49.764;9.796;2023-03-01T06:13:38;-2.70;95.70
5901;DHT22;2976;49.764;9.796;2023-03-01T06:16:07;-2.80;95.20
5901;DHT22;2976;49.764;9.796;2023-03-01T06:18:32;-2.90;99.90
5901;DHT22;2976;49.764;9.796;2023-03-01T06:20:58;-2.90;99.90
5901;DHT22;2976;49.764;9.796;2023-03-01T06:23:24;-2.80;99.90
5901;DHT22;2976;49.764;9.796;2023-03-01T06:25:50;-2.80;99.90
5901;DHT22;2976;49.764;9.796;2023-03-01T06:28:16;-2.70;94.10
5901;DHT22;2976;49.764;9.796;2023-03-01T06:30:41;-2.70;93.60
5901;DHT22;2976;49.764;9.796;2023-03-01T06:33:07;-2.70;94.60
5901;DHT22;2976;49.764;9.796;2023-03-01T06:35:33;-2.60;90.70
5901;DHT22;2976;49.764;9.796;2023-03-01T06:38:00;-2.60;79.70
5901;DHT22;2976;49.764;9.796;2023-03-01T06:40:26;-2.50;68.80
5901;DHT22;2976;49.764;9.796;2023-03-01T06:42:52;-2.40;57.70
5901;DHT22;2976;49.764;9.796;2023-03-01T06:45:20;-2.20;37.30
5901;DHT22;2976;49.764;9.796;2023-03-01T06:47:46;-2.00;20.40
5901;DHT22;2976;49.764;9.796;2023-03-01T06:50:12;-1.90;1.00
5901;DHT22;2976;49.764;9.796;2023-03-01T06:52:38;-1.80;1.00
5901;DHT22;2976;49.764;9.796;2023-03-01T06:55:04;-1.70;1.00
5901;DHT22;2976;49.764;9.796;2023-03-01T06:57:31;-1.50;1.00
5901;DHT22;2976;49.764;9.796;2023-03-01T06:59:56;-1.40;1.00
5901;DHT22;2976;49.764;9.796;2023-03-01T07:02:22;-1.40;1.00
5901;DHT22;2976;49.764;9.796;2023-03-01T07:04:51;-1.30;1.00
5901;DHT22;2976;49.764;9.796;2023-03-01T07:07:18;-1.20;99.90
5901;DHT22;2976;49.764;9.796;2023-03-01T07:09:48;-1.10;99.90
5901;DHT22;2976;49.764;9.796;2023-03-01T07:12:14;-1.10;15.60
5901;DHT22;2976;49.764;9.796;2023-03-01T07:14:40;-1.10;1.00
5901;DHT22;2976;49.764;9.796;2023-03-01T07:17:06;-1.00;99.90
5901;DHT22;2976;49.764;9.796;2023-03-01T07:19:32;-0.90;99.90
5901;DHT22;2976;49.764;9.796;2023-03-01T07:21:58;-0.80;99.90
5901;DHT22;2976;49.764;9.796;2023-03-01T07:24:23;-0.50;1.00
5901;DHT22;2976;49.764;9.796;2023-03-01T07:26:50;-0.40;1.00
5901;DHT22;2976;49.764;9.796;2023-03-01T07:29:16;-0.30;99.90
5901;DHT22;2976;49.764;9.796;2023-03-01T07:31:42;-0.20;1.00
5901;DHT22;2976;49.764;9.796;2023-03-01T07:34:08;-0.10;99.90
5901;DHT22;2976;49.764;9.796;2023-03-01T07:36:33;-0.20;99.90
5901;DHT22;2976;49.764;9.796;2023-03-01T07:38:59;-0.10;1.00
5901;DHT22;2976;49.764;9.796;2023-03-01T07:41:27;0.10;99.90
5901;DHT22;2976;49.764;9.796;2023-03-01T07:43:53;0.20;99.90
5901;DHT22;2976;49.764;9.796;2023-03-01T07:46:18;0.20;1.00
5901;DHT22;2976;49.764;9.796;2023-03-01T07:48:44;0.40;99.90
5901;DHT22;2976;49.764;9.796;2023-03-01T07:51:10;0.80;99.90
5901;DHT22;2976;49.764;9.796;2023-03-01T07:53:36;0.90;1.00
5901;DHT22;2976;49.764;9.796;2023-03-01T07:56:03;0.90;99.90
5901;DHT22;2976;49.764;9.796;2023-03-01T07:58:29;1.10;99.90
5901;DHT22;2976;49.764;9.796;2023-03-01T08:00:55;1.10;99.90
5901;DHT22;2976;49.764;9.796;2023-03-01T08:03:20;1.30;99.90
5901;DHT22;2976;49.764;9.796;2023-03-01T08:05:46;1.30;97.40
5901;DHT22;2976;49.764;9.796;2023-03-01T08:08:12;1.40;1.00
5901;DHT22;2976;49.764;9.796;2023-03-01T08:10:37;1.10;82.00
5901;DHT22;2976;49.764;9.796;2023-03-01T08:13:03;1.20;99.90
5901;DHT22;2976;49.764;9.796;2023-03-01T08:15:28;1.30;18.80
5901;DHT22;2976;49.764;9.796;2023-03-01T08:17:54;1.30;99.90
5901;DHT22;2976;49.764;9.796;2023-03-01T08:20:19;1.40;98.20
5901;DHT22;2976;49.764;9.796;2023-03-01T08:22:45;1.50;1.00
5901;DHT22;2976;49.764;9.796;2023-03-01T08:25:10;1.80;1.00
5901;DHT22;2976;49.764;9.796;2023-03-01T08:27:36;1.80;1.00
5901;DHT22;2976;49.764;9.796;2023-03-01T08:30:02;1.90;1.00
5901;DHT22;2976;49.764;9.796;2023-03-01T08:32:28;2.10;1.00
5901;DHT22;2976;49.764;9.796;2023-03-01T08:34:53;2.40;99.90
5901;DHT22;2976;49.764;9.796;2023-03-01T08:37:19;2.80;1.00
5901;DHT22;2976;49.764;9.796;2023-03-01T08:39:44;3.10;99.90
5901;DHT22;2976;49.764;9.796;2023-03-01T08:42:10;3.20;99.90
5901;DHT22;2976;49.764;9.796;2023-03-01T08:44:35;3.30;99.90
5901;DHT22;2976;49.764;9.796;2023-03-01T08:47:01;3.00;99.90
5901;DHT22;2976;49.764;9.796;2023-03-01T08:49:27;2.80;99.90
5901;DHT22;2976;49.764;9.796;2023-03-01T08:51:53;2.90;99.90
5901;DHT22;2976;49.764;9.796;2023-03-01T08:54:21;3.00;99.90
5901;DHT22;2976;49.764;9.796;2023-03-01T08:56:47;3.30;99.90
5901;DHT22;2976;49.764;9.796;2023-03-01T08:59:14;3.60;99.90
5901;DHT22;2976;49.764;9.796;2023-03-01T09:01:40;3.20;99.90
5901;DHT22;2976;49.764;9.796;2023-03-01T09:04:09;3.10;99.90
5901;DHT22;2976;49.764;9.796;2023-03-01T09:06:35;3.10;99.90
5901;DHT22;2976;49.764;9.796;2023-03-01T09:09:02;3.20;99.90
5901;DHT22;2976;49.764;9.796;2023-03-01T09:11:28;3.10;99.90
5901;DHT22;2976;49.764;9.796;2023-03-01T09:13:53;3.20;99.90
5901;DHT22;2976;49.764;9.796;2023-03-01T09:16:20;3.30;99.90
5901;DHT22;2976;49.764;9.796;2023-03-01T09:18:50;3.50;99.90
5901;DHT22;2976;49.764;9.796;2023-03-01T09:21:17;3.90;99.90
5901;DHT22;2976;49.764;9.796;2023-03-01T09:23:45;3.90;99.90
5901;DHT22;2976;49.764;9.796;2023-03-01T09:26:17;4.00;99.90
5901;DHT22;2976;49.764;9.796;2023-03-01T09:28:44;3.60;99.90
5901;DHT22;2976;49.764;9.796;2023-03-01T09:31:10;3.40;99.90
5901;DHT22;2976;49.764;9.796;2023-03-01T09:33:39;3.70;99.90
5901;DHT22;2976;49.764;9.796;2023-03-01T09:36:07;3.80;99.90
5901;DHT22;2976;49.764;9.796;2023-03-01T09:38:33;3.90;99.90
5901;DHT22;2976;49.764;9.796;2023-03-01T09:41:00;4.30;99.90
5901;DHT22;2976;49.764;9.796;2023-03-01T09:43:29;4.20;99.90
5901;DHT22;2976;49.764;9.796;2023-03-01T09:46:03;4.10;99.90
5901;DHT22;2976;49.764;9.796;2023-03-01T09:48:35;4.10;99.90
5901;DHT22;2976;49.764;9.796;2023-03-01T09:51:06;4.20;99.90
5901;DHT22;2976;49.764;9.796;2023-03-01T09:53:34;4.50;99.90
5901;DHT22;2976;49.764;9.796;2023-03-01T09:56:20;4.70;99.90
5901;DHT22;2976;49.764;9.796;2023-03-01T10:02:04;4.80;99.90
5901;DHT22;2976;49.764;9.796;2023-03-01T10:04:46;4.80;99.90
5901;DHT22;2976;49.764;9.796;2023-03-01T10:07:30;4.60;99.90
5901;DHT22;2976;49.764;9.796;2023-03-01T10:09:58;4.60;99.90
5901;DHT22;2976;49.764;9.796;2023-03-01T10:12:34;4.80;99.90
5901;DHT22;2976;49.764;9.796;2023-03-01T10:15:09;5.00;99.90
5901;DHT22;2976;49.764;9.796;2023-03-01T10:20:25;5.00;99.90
5901;DHT22;2976;49.764;9.796;2023-03-01T10:22:52;5.00;99.90
5901;DHT22;2976;49.764;9.796;2023-03-01T10:25:47;5.10;99.90
5901;DHT22;2976;49.764;9.796;2023-03-01T10:28:22;4.70;99.90
5901;DHT22;2976;49.764;9.796;2023-03-01T10:30:50;4.30;99.90
5901;DHT22;2976;49.764;9.796;2023-03-01T10:33:22;4.40;99.90
5901;DHT22;2976;49.764;9.796;2023-03-01T10:35:48;4.60;99.90
5901;DHT22;2976;49.764;9.796;2023-03-01T10:38:15;4.80;99.90
5901;DHT22;2976;49.764;9.796;2023-03-01T10:43:31;5.10;99.90
5901;DHT22;2976;49.764;9.796;2023-03-01T10:45:58;5.10;99.90
5901;DHT22;2976;49.764;9.796;2023-03-01T10:48:25;5.10;99.90
5901;DHT22;2976;49.764;9.796;2023-03-01T10:53:36;5.00;99.90
5901;DHT22;2976;49.764;9.796;2023-03-01T10:56:11;5.30;99.90
5901;DHT22;2976;49.764;9.796;2023-03-01T10:59:02;5.50;99.90
5901;DHT22;2976;49.764;9.796;2023-03-01T11:01:37;5.40;99.90
5901;DHT22;2976;49.764;9.796;2023-03-01T11:06:32;5.60;99.90
5901;DHT22;2976;49.764;9.796;2023-03-01T11:09:18;5.60;99.90
5901;DHT22;2976;49.764;9.796;2023-03-01T11:11:44;5.50;99.90
5901;DHT22;2976;49.764;9.796;2023-03-01T11:14:16;5.60;99.90
5901;DHT22;2976;49.764;9.796;2023-03-01T11:16:45;5.60;99.90
5901;DHT22;2976;49.764;9.796;2023-03-01T11:21:47;5.70;99.90
5901;DHT22;2976;49.764;9.796;2023-03-01T11:24:17;5.70;99.90
5901;DHT22;2976;49.764;9.796;2023-03-01T11:26:53;6.00;99.90
5901;DHT22;2976;49.764;9.796;2023-03-01T11:29:40;6.10;99.90
5901;DHT22;2976;49.764;9.796;2023-03-01T11:32:11;6.00;99.90
5901;DHT22;2976;49.764;9.796;2023-03-01T11:34:48;6.10;99.90
5901;DHT22;2976;49.764;9.796;2023-03-01T11:37:28;5.90;99.90
5901;DHT22;2976;49.764;9.796;2023-03-01T11:45:24;5.50;99.90
5901;DHT22;2976;49.764;9.796;2023-03-01T11:51:02;5.80;99.90
5901;DHT22;2976;49.764;9.796;2023-03-01T11:53:36;5.80;99.90
5901;DHT22;2976;49.764;9.796;2023-03-01T12:10:03;5.90;99.90
5901;DHT22;2976;49.764;9.796;2023-03-01T12:15:58;5.80;99.90
5901;DHT22;2976;49.764;9.796;2023-03-01T12:18:49;5.60;99.90
5901;DHT22;2976;49.764;9.796;2023-03-01T12:24:10;5.70;99.90
5901;DHT22;2976;49.764;9.796;2023-03-01T12:38:13;6.00;99.90
5901;DHT22;2976;49.764;9.796;2023-03-01T12:40:46;6.20;99.90
5901;DHT22;2976;49.764;9.796;2023-03-01T12:43:19;6.10;99.90
5901;DHT22;2976;49.764;9.796;2023-03-01T12:51:31;6.10;99.90
5901;DHT22;2976;49.764;9.796;2023-03-01T12:54:01;6.20;99.90
5901;DHT22;2976;49.764;9.796;2023-03-01T12:56:32;6.20;99.90
5901;DHT22;2976;49.764;9.796;2023-03-01T13:02:02;6.30;99.90
5901;DHT22;2976;49.764;9.796;2023-03-01T13:04:31;6.20;99.90
5901;DHT22;2976;49.764;9.796;2023-03-01T13:17:49;6.50;99.90
5901;DHT22;2976;49.764;9.796;2023-03-01T13:20:18;6.40;99.90
5901;DHT22;2976;49.764;9.796;2023-03-01T13:22:46;6.30;99.90
5901;DHT22;2976;49.764;9.796;2023-03-01T13:25:18;6.30;99.90
5901;DHT22;2976;49.764;9.796;2023-03-01T13:27:45;6.40;99.90
5901;DHT22;2976;49.764;9.796;2023-03-01T13:33:40;6.30;99.90
5901;DHT22;2976;49.764;9.796;2023-03-01T13:36:07;6.30;99.90
5901;DHT22;2976;49.764;9.796;2023-03-01T13:38:55;6.30;99.90
5901;DHT22;2976;49.764;9.796;2023-03-01T13:46:53;6.60;99.90
5901;DHT22;2976;49.764;9.796;2023-03-01T13:49:23;6.70;99.90
5901;DHT22;2976;49.764;9.796;2023-03-01T13:51:50;6.60;99.90
5901;DHT22;2976;49.764;9.796;2023-03-01T13:54:29;6.60;99.90
5901;DHT22;2976;49.764;9.796;2023-03-01T13:56:57;6.60;99.90
5901;DHT22;2976;49.764;9.796;2023-03-01T13:59:23;6.60;99.90
5901;DHT22;2976;49.764;9.796;2023-03-01T14:01:59;6.70;99.90
5901;DHT22;2976;49.764;9.796;2023-03-01T14:04:30;6.70;99.90
5901;DHT22;2976;49.764;9.796;2023-03-01T14:07:20;6.70;99.90
5901;DHT22;2976;49.764;9.796;2023-03-01T14:09:54;6.70;99.90
5901;DHT22;2976;49.764;9.796;2023-03-01T14:12:50;6.70;99.90
5901;DHT22;2976;49.764;9.796;2023-03-01T14:15:37;6.90;99.90
5901;DHT22;2976;49.764;9.796;2023-03-01T14:18:15;6.80;99.90
5901;DHT22;2976;49.764;9.796;2023-03-01T14:20:45;6.80;99.90
5901;DHT22;2976;49.764;9.796;2023-03-01T14:23:18;6.80;99.90
5901;DHT22;2976;49.764;9.796;2023-03-01T14:25:53;6.90;99.90
5901;DHT22;2976;49.764;9.796;2023-03-01T14:28:21;6.90;99.90
5901;DHT22;2976;49.764;9.796;2023-03-01T14:30:53;6.80;99.90
5901;DHT22;2976;49.764;9.796;2023-03-01T14:33:39;6.90;99.90
5901;DHT22;2976;49.764;9.796;2023-03-01T14:36:11;6.90;99.90
5901;DHT22;2976;49.764;9.796;2023-03-01T14:38:43;6.90;99.90
5901;DHT22;2976;49.764;9.796;2023-03-01T14:41:13;6.80;99.90
5901;DHT22;2976;49.764;9.796;2023-03-01T14:43:44;6.90;99.90
5901;DHT22;2976;49.764;9.796;2023-03-01T14:48:57;6.90;99.90
5901;DHT22;2976;49.764;9.796;2023-03-01T14:51:23;6.90;99.90
5901;DHT22;2976;49.764;9.796;2023-03-01T14:53:49;6.90;99.90
5901;DHT22;2976;49.764;9.796;2023-03-01T14:56:17;7.00;99.90
5901;DHT22;2976;49.764;9.796;2023-03-01T14:58:43;7.10;99.90
5901;DHT22;2976;49.764;9.796;2023-03-01T15:01:15;7.00;99.90
5901;DHT22;2976;49.764;9.796;2023-03-01T15:03:44;7.00;99.90
5901;DHT22;2976;49.764;9.796;2023-03-01T15:06:11;7.00;99.90
5901;DHT22;2976;49.764;9.796;2023-03-01T15:08:46;7.00;99.90
5901;DHT22;2976;49.764;9.796;2023-03-01T15:11:30;7.10;99.90
5901;DHT22;2976;49.764;9.796;2023-03-01T15:13:57;7.10;99.90
5901;DHT22;2976;49.764;9.796;2023-03-01T15:16:24;7.10;99.90
5901;DHT22;2976;49.764;9.796;2023-03-01T15:18:55;6.90;99.90
5901;DHT22;2976;49.764;9.796;2023-03-01T15:21:33;6.90;99.90
5901;DHT22;2976;49.764;9.796;2023-03-01T15:24:20;7.00;99.90
5901;DHT22;2976;49.764;9.796;2023-03-01T15:27:01;7.00;99.90
5901;DHT22;2976;49.764;9.796;2023-03-01T15:29:33;6.90;99.90
5901;DHT22;2976;49.764;9.796;2023-03-01T15:32:36;6.90;99.90
5901;DHT22;2976;49.764;9.796;2023-03-01T15:35:33;6.90;99.90
5901;DHT22;2976;49.764;9.796;2023-03-01T15:38:00;6.90;99.90
5901;DHT22;2976;49.764;9.796;2023-03-01T15:40:28;6.90;99.90
5901;DHT22;2976;49.764;9.796;2023-03-01T15:43:00;6.80;99.90
5901;DHT22;2976;49.764;9.796;2023-03-01T15:45:29;6.80;99.90
5901;DHT22;2976;49.764;9.796;2023-03-01T15:47:57;6.80;99.90
5901;DHT22;2976;49.764;9.796;2023-03-01T15:50:26;6.80;99.90
5901;DHT22;2976;49.764;9.796;2023-03-01T15:52:53;6.80;99.90
5901;DHT22;2976;49.764;9.796;2023-03-01T15:55:22;6.80;99.90
5901;DHT22;2976;49.764;9.796;2023-03-01T15:57:49;6.70;99.90
5901;DHT22;2976;49.764;9.796;2023-03-01T16:00:16;6.70;99.90
5901;DHT22;2976;49.764;9.796;2023-03-01T16:02:43;6.70;99.90
5901;DHT22;2976;49.764;9.796;2023-03-01T16:05:22;6.60;99.90
5901;DHT22;2976;49.764;9.796;2023-03-01T16:07:49;6.60;99.90
5901;DHT22;2976;49.764;9.796;2023-03-01T16:10:15;6.50;99.90
5901;DHT22;2976;49.764;9.796;2023-03-01T16:12:40;6.50;99.90
5901;DHT22;2976;49.764;9.796;2023-03-01T16:15:18;6.50;99.90
5901;DHT22;2976;49.764;9.796;2023-03-01T16:17:46;6.50;99.90
5901;DHT22;2976;49.764;9.796;2023-03-01T16:20:12;6.40;99.90
5901;DHT22;2976;49.764;9.796;2023-03-01T16:22:37;6.40;99.90
5901;DHT22;2976;49.764;9.796;2023-03-01T16:25:03;6.30;99.90
5901;DHT22;2976;49.764;9.796;2023-03-01T16:27:29;6.20;99.90
5901;DHT22;2976;49.764;9.796;2023-03-01T16:29:54;6.20;99.90
5901;DHT22;2976;49.764;9.796;2023-03-01T16:32:20;6.10;99.90
5901;DHT22;2976;49.764;9.796;2023-03-01T16:34:46;6.00;99.90
5901;DHT22;2976;49.764;9.796;2023-03-01T16:37:15;6.00;99.90
5901;DHT22;2976;49.764;9.796;2023-03-01T16:39:40;5.90;99.90
5901;DHT22;2976;49.764;9.796;2023-03-01T16:42:06;5.80;99.90
5901;DHT22;2976;49.764;9.796;2023-03-01T16:44:31;5.70;99.90
5901;DHT22;2976;49.764;9.796;2023-03-01T16:46:57;5.60;99.90
5901;DHT22;2976;49.764;9.796;2023-03-01T16:49:22;5.60;99.90
5901;DHT22;2976;49.764;9.796;2023-03-01T16:51:48;5.40;99.90
5901;DHT22;2976;49.764;9.796;2023-03-01T16:54:14;5.30;99.90
5901;DHT22;2976;49.764;9.796;2023-03-01T16:56:39;5.20;99.90
5901;DHT22;2976;49.764;9.796;2023-03-01T16:59:06;5.20;99.90
5901;DHT22;2976;49.764;9.796;2023-03-01T17:01:32;5.10;99.90
5901;DHT22;2976;49.764;9.796;2023-03-01T17:04:05;5.10;99.90
5901;DHT22;2976;49.764;9.796;2023-03-01T17:06:31;5.10;99.90
5901;DHT22;2976;49.764;9.796;2023-03-01T17:08:58;4.90;99.90
5901;DHT22;2976;49.764;9.796;2023-03-01T17:11:24;4.80;99.90
5901;DHT22;2976;49.764;9.796;2023-03-01T17:13:50;4.70;99.90
5901;DHT22;2976;49.764;9.796;2023-03-01T17:16:18;4.70;99.90
5901;DHT22;2976;49.764;9.796;2023-03-01T17:18:44;4.70;99.90
5901;DHT22;2976;49.764;9.796;2023-03-01T17:21:10;4.50;99.90
5901;DHT22;2976;49.764;9.796;2023-03-01T17:23:38;4.50;1.00
5901;DHT22;2976;49.764;9.796;2023-03-01T17:26:04;4.50;1.00
5901;DHT22;2976;49.764;9.796;2023-03-01T17:28:31;4.40;1.00
5901;DHT22;2976;49.764;9.796;2023-03-01T17:30:59;4.30;1.00
5901;DHT22;2976;49.764;9.796;2023-03-01T17:33:25;4.20;1.00
5901;DHT22;2976;49.764;9.796;2023-03-01T17:35:51;4.10;1.00
5901;DHT22;2976;49.764;9.796;2023-03-01T17:38:17;4.10;1.00
5901;DHT22;2976;49.764;9.796;2023-03-01T17:40:44;4.10;1.00
5901;DHT22;2976;49.764;9.796;2023-03-01T17:43:13;4.10;1.00
5901;DHT22;2976;49.764;9.796;2023-03-01T17:45:39;4.00;1.00
5901;DHT22;2976;49.764;9.796;2023-03-01T17:48:06;4.00;1.00
5901;DHT22;2976;49.764;9.796;2023-03-01T17:50:32;3.90;1.00
5901;DHT22;2976;49.764;9.796;2023-03-01T17:52:58;3.90;1.00
5901;DHT22;2976;49.764;9.796;2023-03-01T17:55:24;3.70;1.00
5901;DHT22;2976;49.764;9.796;2023-03-01T17:57:49;3.70;8.10
5901;DHT22;2976;49.764;9.796;2023-03-01T18:00:16;3.70;11.40